MUC | München Airways

 METAR UND TAF INFORMATION

METAR FOR GMAD
ADDS - METARS form results

(0835 UTC 19 March 2019)
Data provider http://aviationweather.gov/metar/data/
 
METAR text: GMAD 190830Z 20004KT 2000 BR OVC003 14/14 Q1016 BECMG 5000 SCT006 BKN016
Conditions at: GMAD (AL MASSIRA MC , MA) observed 0830 UTC 19 March 2019
Temperature: 14.0°C (57°F)
Dewpoint: 14.0°C (57°F) [RH = 100%]
Pressure (altimeter): 30.00 inches Hg (1016.0 mb)
Winds: from the SSW (200 degrees) at 5 MPH (4 knots; 2.1 m/s)
Visibility: 1.24 miles (2.00 km)
Ceiling: 300 feet AGL
Clouds: overcast cloud deck at 300 feet AGL
Weather: BR  (mist)

METAR text: GMAD 190813Z 18005KT 0800 FG OVC003 13/13 Q1016 NOSIG
Conditions at: GMAD (AL MASSIRA MC , MA) observed 0813 UTC 19 March 2019
Temperature: 13.0°C (55°F)
Dewpoint: 13.0°C (55°F) [RH = 100%]
Pressure (altimeter): 30.00 inches Hg (1016.0 mb)
Winds: from the S (180 degrees) at 6 MPH (5 knots; 2.6 m/s)
Visibility: 0.50 miles (0.80 km)
Ceiling: 300 feet AGL
Clouds: overcast cloud deck at 300 feet AGL
Weather: FG  (fog)

METAR text: GMAD 190807Z 19003KT 0100 FG OVC003 13/13 Q1016 BECMG 2000 BR OVC003
Conditions at: GMAD (AL MASSIRA MC , MA) observed 0807 UTC 19 March 2019
Temperature: 13.0°C (55°F)
Dewpoint: 13.0°C (55°F) [RH = 100%]
Pressure (altimeter): 30.00 inches Hg (1016.0 mb)
Winds: from the S (190 degrees) at 3 MPH (3 knots; 1.5 m/s)
Visibility: 0.06 miles (0.10 km)
Ceiling: 300 feet AGL
Clouds: overcast cloud deck at 300 feet AGL
Weather: FG  (fog)

METAR text: GMAD 190800Z 18003KT 0100 FG OVC003 12/12 Q1016 NOSIG
Conditions at: GMAD (AL MASSIRA MC , MA) observed 0800 UTC 19 March 2019
Temperature: 12.0°C (54°F)
Dewpoint: 12.0°C (54°F) [RH = 100%]
Pressure (altimeter): 30.00 inches Hg (1016.0 mb)
Winds: from the S (180 degrees) at 3 MPH (3 knots; 1.5 m/s)
Visibility: 0.06 miles (0.10 km)
Ceiling: 300 feet AGL
Clouds: overcast cloud deck at 300 feet AGL
Weather: FG  (fog)

Forecast for: GMAD (AL MASSIRA MC , MA)
Text: TAF GMAD 190500Z 1906/2012 06008KT 8000 SCT020
Forecast period: 0600 to 1200 UTC 19 March 2019
Forecast type: FROM: standard forecast or significant change
Winds: from the ENE (60 degrees) at 9 MPH (8 knots; 4.1 m/s)
Visibility: 5 miles (8 km)
Ceiling: at least 12,000 feet AGL
Clouds: scattered clouds at 2000 feet AGL
Weather: no significant weather forecast for this period
Text: BECMG 1912/1914 27012KT
Forecast period: 1200 UTC 19 March 2019 to 1200 UTC 20 March 2019
Forecast type: BECOMING: Conditions expected to become as follows by 1400 UTC 19 March 2019
Winds: from the W (270 degrees) at 14 MPH (12 knots; 6.2 m/s)
Visibility: 5 miles (8 km)
Ceiling: at least 12,000 feet AGL
Clouds: scattered clouds at 2000 feet AGL
Weather: no significant weather forecast for this period

 FLUGHAFENKARTE

 RUNWAY INFORMATION
Runway 10 Runway length 10499 ft Runway width 148 ft
Runway elevation 198 ft Runway displaced threshold 0 ft Runway heading 92
Runway 28 Runway length 10499 ft Runway width 148 ft
Runway elevation 254 ft Runway displaced threshold 0 ft Runway heading 272

 AIRPORT FREQUENCIES
Type APP Name AGADIR APP Frequency 120.9 MHZ
Type TWR Name AGADIR TWR Frequency 119.5 MHZ

 AIRPORT NEAR NAVIGATION AIDS
Type VOR-DME Name Agadir Frequency 117200 KHZ
Type NDB Name Agadir Frequency 396 KHZ
Type NDB Name Agadir Frequency 402 KHZ